createdAt,value
2018-05-25T00:00:00.928Z,71.25
2018-05-25T00:01:10.913Z,70.86
2018-05-25T00:02:20.916Z,71.63
2018-05-25T00:03:30.890Z,71.34
2018-05-25T00:04:40.853Z,71.44
2018-05-25T00:05:50.829Z,71.92
2018-05-25T00:07:00.821Z,71.92
2018-05-25T00:08:10.788Z,71.72
2018-05-25T00:09:20.763Z,71.25
2018-05-25T00:10:30.769Z,71.92
2018-05-25T00:11:40.739Z,71.63
2018-05-25T00:12:50.714Z,71.92
2018-05-25T00:14:00.692Z,72.01
2018-05-25T00:15:10.406Z,72.11
2018-05-25T00:16:20.374Z,72.01
2018-05-25T00:17:30.354Z,72.2
2018-05-25T00:18:40.329Z,72.3
2018-05-25T00:19:50.056Z,72.39
2018-05-25T00:21:00.032Z,72.59
2018-05-25T00:22:09.995Z,72.39
2018-05-25T00:23:19.978Z,72.39
2018-05-25T00:24:29.962Z,72.39
2018-05-25T00:25:39.935Z,72.49
2018-05-25T00:26:49.907Z,72.97
2018-05-25T00:27:59.882Z,72.78
2018-05-25T00:29:09.871Z,72.68
2018-05-25T00:30:19.595Z,72.78
2018-05-25T00:31:29.573Z,72.78
2018-05-25T00:32:39.585Z,72.78
2018-05-25T00:33:49.570Z,72.88
2018-05-25T00:34:59.282Z,72.88
2018-05-25T00:36:08.478Z,72.97
2018-05-25T00:37:18.190Z,73.35
2018-05-25T00:38:27.915Z,73.16
2018-05-25T00:39:37.630Z,72.88
2018-05-25T00:40:47.353Z,73.03
2018-05-25T00:41:57.066Z,73.16
2018-05-25T00:43:06.785Z,73.35
2018-05-25T00:44:16.493Z,73.65
2018-05-25T00:45:26.458Z,73.65
2018-05-25T00:46:36.420Z,73.61
2018-05-25T00:47:46.138Z,73.51
2018-05-25T00:48:56.115Z,73.99
2018-05-25T00:50:06.082Z,73.99
2018-05-25T00:51:15.531Z,73.99
2018-05-25T00:52:25.505Z,73.99
2018-05-25T00:53:35.482Z,73.9
2018-05-25T00:54:45.449Z,73.99
2018-05-25T00:55:55.424Z,73.9
2018-05-25T00:57:05.129Z,73.83
2018-05-25T00:58:15.092Z,73.83
2018-05-25T00:59:25.062Z,73.8
2018-05-25T01:00:35.053Z,73.8
2018-05-25T01:01:44.779Z,74.08
2018-05-25T01:02:54.493Z,73.8
2018-05-25T01:04:04.217Z,73.8
2018-05-25T01:05:14.198Z,73.99
2018-05-25T01:06:24.161Z,74.27
2018-05-25T01:07:34.138Z,74.37
2018-05-25T01:08:43.900Z,73.9
2018-05-25T01:09:53.868Z,74.27
2018-05-25T01:11:03.835Z,73.9
2018-05-25T01:12:13.551Z,74.08
2018-05-25T01:13:23.267Z,73.9
2018-05-25T01:14:33.226Z,74.27
2018-05-25T01:15:43.197Z,74.27
2018-05-25T01:16:53.151Z,73.99
2018-05-25T01:18:02.859Z,74.57
2018-05-25T01:19:12.850Z,74.08
2018-05-25T01:20:22.057Z,74.37
2018-05-25T01:21:32.023Z,73.99
2018-05-25T01:22:41.746Z,74.57
2018-05-25T01:23:51.458Z,74.18
2018-05-25T01:25:01.432Z,73.99
2018-05-25T01:26:11.169Z,73.8
2018-05-25T01:27:21.144Z,74.47
2018-05-25T01:28:30.859Z,73.99
2018-05-25T01:29:40.830Z,74.18
2018-05-25T01:30:50.560Z,73.99
2018-05-25T01:32:00.273Z,74.37
2018-05-25T01:33:10.480Z,73.9
2018-05-25T01:34:20.445Z,73.99
2018-05-25T01:35:30.149Z,74.08
2018-05-25T01:36:39.863Z,74.37
2018-05-25T01:37:49.840Z,74.47
2018-05-25T01:38:59.563Z,74.37
2018-05-25T01:40:09.552Z,74.85
2018-05-25T01:41:19.264Z,74.66
2018-05-25T01:42:28.735Z,74.95
2018-05-25T01:43:38.705Z,74.47
2018-05-25T01:44:48.423Z,74.95
2018-05-25T01:45:58.396Z,75.14
2018-05-25T01:47:08.123Z,75.14
2018-05-25T01:48:17.571Z,74.95
2018-05-25T01:49:27.547Z,75.23
2018-05-25T01:50:37.520Z,75.04
2018-05-25T01:51:47.224Z,75.62
2018-05-25T01:52:57.184Z,76
2018-05-25T01:54:07.160Z,75.71
2018-05-25T01:55:17.132Z,75.81
2018-05-25T01:56:26.837Z,75.81
2018-05-25T01:57:36.813Z,75.96
2018-05-25T01:58:46.773Z,75.77
2018-05-25T01:59:56.745Z,75.68
2018-05-25T02:01:06.719Z,75.87
2018-05-25T02:02:16.710Z,76.15
2018-05-25T02:03:26.685Z,76.06
2018-05-25T02:04:36.646Z,76.25
2018-05-25T02:05:46.629Z,75.96
2018-05-25T02:06:56.624Z,76.06
2018-05-25T02:08:06.658Z,76.25
2018-05-25T02:09:16.635Z,76.64
2018-05-25T02:10:26.093Z,76.06
2018-05-25T02:11:35.547Z,76.44
2018-05-25T02:12:45.514Z,76.35
2018-05-25T02:13:55.473Z,76.35
2018-05-25T02:15:05.442Z,76.06
2018-05-25T02:16:15.148Z,76.73
2018-05-25T02:17:24.856Z,76.54
2018-05-25T02:18:34.868Z,76.25
2018-05-25T02:19:44.591Z,76.35
2018-05-25T02:20:54.556Z,76.44
2018-05-25T02:22:04.270Z,77.02
2018-05-25T02:23:13.988Z,76.54
2018-05-25T02:24:23.962Z,76.54
2018-05-25T02:25:33.920Z,76.92
2018-05-25T02:26:43.888Z,76.73
2018-05-25T02:27:53.849Z,77.02
2018-05-25T02:29:03.568Z,77.11
2018-05-25T02:30:13.549Z,77.31
2018-05-25T02:31:23.524Z,77.31
2018-05-25T02:32:33.498Z,77.88
2018-05-25T02:33:43.485Z,77.31
2018-05-25T02:34:53.457Z,77.4
2018-05-25T02:36:03.182Z,77.88
2018-05-25T02:37:13.162Z,78.07
2018-05-25T02:38:22.609Z,77.59
2018-05-25T02:39:32.589Z,78.17
2018-05-25T02:40:42.300Z,78.36
2018-05-25T02:41:52.012Z,78.17
2018-05-25T02:43:01.739Z,78.7
2018-05-25T02:44:11.463Z,78.22
2018-05-25T02:45:21.443Z,77.94
2018-05-25T02:46:31.409Z,78.36
2018-05-25T02:47:41.379Z,78.61
2018-05-25T02:48:51.353Z,78.7
2018-05-25T02:50:01.318Z,78.89
2018-05-25T02:51:11.044Z,78.89
2018-05-25T02:52:20.774Z,78.51
2018-05-25T02:53:30.243Z,78.99
2018-05-25T02:54:39.956Z,78.7
2018-05-25T02:55:49.956Z,78.51
2018-05-25T02:56:59.937Z,78.8
2018-05-25T02:58:09.910Z,78.32
2018-05-25T02:59:19.871Z,79.08
2018-05-25T03:00:29.861Z,79.18
2018-05-25T03:01:39.833Z,78.99
2018-05-25T03:02:49.295Z,78.89
2018-05-25T03:03:59.280Z,79.28
2018-05-25T03:05:09.257Z,79.18
2018-05-25T03:06:19.239Z,79.08
2018-05-25T03:07:29.203Z,78.99
2018-05-25T03:08:38.913Z,79.28
2018-05-25T03:09:48.887Z,79.28
2018-05-25T03:10:58.604Z,79.08
2018-05-25T03:12:08.575Z,78.8
2018-05-25T03:13:18.546Z,79.28
2018-05-25T03:14:28.286Z,79.28
2018-05-25T03:15:38.244Z,78.89
2018-05-25T03:16:47.967Z,78.99
2018-05-25T03:17:58.074Z,79.57
2018-05-25T03:19:08.042Z,79.28
2018-05-25T03:20:17.754Z,78.99
2018-05-25T03:21:27.719Z,79.37
2018-05-25T03:22:37.697Z,78.89
2018-05-25T03:23:47.407Z,79.18
2018-05-25T03:24:57.389Z,78.61
2018-05-25T03:26:07.404Z,78.7
2018-05-25T03:27:16.938Z,78.61
2018-05-25T03:28:26.901Z,79.28
2018-05-25T03:29:36.353Z,78.51
2018-05-25T03:30:46.330Z,78.7
2018-05-25T03:31:56.306Z,78.99
2018-05-25T03:33:06.293Z,78.89
2018-05-25T03:34:16.006Z,78.13
2018-05-25T03:35:25.466Z,78.61
2018-05-25T03:36:35.194Z,78.32
2018-05-25T03:37:45.166Z,78.22
2018-05-25T03:38:55.137Z,78.22
2018-05-25T03:40:05.125Z,78.22
2018-05-25T03:41:15.104Z,78.32
2018-05-25T03:42:24.564Z,78.61
2018-05-25T03:43:34.270Z,78.32
2018-05-25T03:44:44.236Z,78.51
2018-05-25T03:45:54.208Z,77.84
2018-05-25T03:47:04.182Z,78.03
2018-05-25T03:48:13.900Z,78.42
2018-05-25T03:49:23.874Z,78.22
2018-05-25T03:50:33.856Z,78.22
2018-05-25T03:51:43.824Z,78.32
2018-05-25T03:52:53.793Z,78.22
2018-05-25T03:54:03.757Z,78.22
2018-05-25T03:55:13.744Z,77.84
2018-05-25T03:56:23.731Z,78.42
2018-05-25T03:57:33.710Z,77.75
2018-05-25T03:58:43.686Z,78.7
2018-05-25T03:59:53.659Z,77.94
2018-05-25T04:01:03.634Z,78.32
2018-05-25T04:02:13.347Z,78.32
2018-05-25T04:03:23.056Z,77.55
2018-05-25T04:04:33.021Z,77.94
2018-05-25T04:05:42.997Z,77.84
2018-05-25T04:06:52.469Z,77.75
2018-05-25T04:08:02.471Z,77.65
2018-05-25T04:09:12.447Z,77.75
2018-05-25T04:10:22.421Z,77.65
2018-05-25T04:11:32.379Z,77.46
2018-05-25T04:12:42.337Z,77.17
2018-05-25T04:13:52.306Z,77.55
2018-05-25T04:15:02.070Z,77.65
2018-05-25T04:16:12.043Z,76.89
2018-05-25T04:17:21.773Z,77.17
2018-05-25T04:18:31.486Z,76.5
2018-05-25T04:19:41.457Z,76.98
2018-05-25T04:20:51.432Z,76.79
2018-05-25T04:22:01.408Z,76.89
2018-05-25T04:23:11.383Z,76.98
2018-05-25T04:24:21.365Z,76.6
2018-05-25T04:25:31.081Z,76.4
2018-05-25T04:26:41.066Z,75.83
2018-05-25T04:27:50.772Z,75.73
2018-05-25T04:29:00.742Z,76.06
2018-05-25T04:30:10.459Z,75.87
2018-05-25T04:31:20.425Z,75.58
2018-05-25T04:32:30.137Z,75.48
2018-05-25T04:33:39.853Z,75.48
2018-05-25T04:34:49.821Z,75.58
2018-05-25T04:35:59.845Z,75.2
2018-05-25T04:37:09.044Z,74.52
2018-05-25T04:38:19.014Z,74.91
2018-05-25T04:39:29.011Z,74.72
2018-05-25T04:40:38.980Z,74.72
2018-05-25T04:41:48.696Z,74.91
2018-05-25T04:42:58.670Z,74.82
2018-05-25T04:44:08.376Z,74.82
2018-05-25T04:45:18.360Z,74.15
2018-05-25T04:46:28.330Z,73.86
2018-05-25T04:47:38.070Z,73.86
2018-05-25T04:48:48.038Z,73.86
2018-05-25T04:49:57.764Z,73.66
2018-05-25T04:51:07.482Z,73.47
2018-05-25T04:52:17.455Z,73.47
2018-05-25T04:53:27.252Z,73.66
2018-05-25T04:54:37.221Z,73.28
2018-05-25T04:55:47.204Z,73.76
2018-05-25T04:56:57.185Z,73.66
2018-05-25T04:58:06.911Z,73.09
2018-05-25T04:59:16.878Z,72.55
2018-05-25T05:00:26.587Z,72.55
2018-05-25T05:01:36.550Z,72.64
2018-05-25T05:02:46.008Z,72.17
2018-05-25T05:03:55.981Z,72.45
2018-05-25T05:05:06.038Z,72.36
2018-05-25T05:06:16.017Z,72.36
2018-05-25T05:07:26.000Z,72.17
2018-05-25T05:08:35.987Z,71.88
2018-05-25T05:09:45.462Z,71.4
2018-05-25T05:10:55.435Z,71.5
2018-05-25T05:12:05.141Z,71.78
2018-05-25T05:13:14.599Z,71.02
2018-05-25T05:14:24.577Z,71.88
2018-05-25T05:15:34.033Z,70.92
2018-05-25T05:16:44.011Z,71.5
2018-05-25T05:17:53.980Z,71.11
2018-05-25T05:19:03.716Z,71.02
2018-05-25T05:20:13.680Z,71.21
2018-05-25T05:21:23.679Z,71.25
2018-05-25T05:22:33.656Z,71.5
2018-05-25T05:23:43.389Z,71.53
2018-05-25T05:24:53.382Z,71.44
2018-05-25T05:26:03.366Z,71.05
2018-05-25T05:27:13.344Z,70.67
2018-05-25T05:28:23.066Z,70.76
2018-05-25T05:29:33.030Z,70.38
2018-05-25T05:30:43.014Z,70.57
2018-05-25T05:31:52.984Z,70.67
2018-05-25T05:33:02.955Z,71.05
2018-05-25T05:34:12.677Z,70.48
2018-05-25T05:35:22.658Z,71.44
2018-05-25T05:36:32.625Z,70.76
2018-05-25T05:37:42.589Z,71.09
2018-05-25T05:38:52.571Z,71.05
2018-05-25T05:40:02.567Z,70.9
2018-05-25T05:41:12.595Z,70.57
2018-05-25T05:42:22.571Z,70.61
2018-05-25T05:43:32.539Z,70.42
2018-05-25T05:44:42.511Z,70.03
2018-05-25T05:45:52.226Z,69.36
2018-05-25T05:47:02.202Z,69.56
2018-05-25T05:48:11.933Z,69.65
2018-05-25T05:49:21.914Z,69.46
2018-05-25T05:50:31.892Z,69.74
2018-05-25T05:51:41.860Z,69.46
2018-05-25T05:52:51.574Z,68.98
2018-05-25T05:54:01.292Z,69.46
2018-05-25T05:55:11.282Z,69.36
2018-05-25T05:56:21.278Z,68.5
2018-05-25T05:57:31.263Z,69.46
2018-05-25T05:58:41.267Z,68.44
2018-05-25T05:59:51.282Z,68.53
2018-05-25T06:01:01.015Z,68.15
2018-05-25T06:02:10.998Z,69.01
2018-05-25T06:03:21.001Z,69.2
2018-05-25T06:04:30.994Z,69.3
2018-05-25T06:05:40.966Z,68.53
2018-05-25T06:06:50.689Z,68.15
2018-05-25T06:08:00.675Z,68.63
2018-05-25T06:09:10.403Z,68.44
2018-05-25T06:10:20.398Z,68.53
2018-05-25T06:11:30.389Z,68.18
2018-05-25T06:12:39.851Z,67.67
2018-05-25T06:13:49.322Z,68.18
2018-05-25T06:14:58.800Z,67.8
2018-05-25T06:16:08.773Z,67.9
2018-05-25T06:17:18.225Z,67.8
2018-05-25T06:18:28.211Z,67.32
2018-05-25T06:19:38.204Z,67.41
2018-05-25T06:20:48.176Z,67.03
2018-05-25T06:21:58.153Z,67.22
2018-05-25T06:23:08.142Z,67.13
2018-05-25T06:24:18.163Z,67.22
2018-05-25T06:25:28.237Z,67.07
2018-05-25T06:26:37.918Z,67.07
2018-05-25T06:27:47.897Z,67.25
2018-05-25T06:28:57.879Z,67.25
2018-05-25T06:30:07.875Z,66.49
2018-05-25T06:31:17.854Z,66.49
2018-05-25T06:32:27.841Z,66.58
2018-05-25T06:33:37.568Z,66.77
2018-05-25T06:34:47.327Z,66.68
2018-05-25T06:35:57.280Z,66.52
2018-05-25T06:37:07.258Z,65.46
2018-05-25T06:38:17.238Z,65.84
2018-05-25T06:39:27.208Z,66.33
2018-05-25T06:40:36.919Z,65.94
2018-05-25T06:41:46.633Z,66.04
2018-05-25T06:42:56.723Z,65.56
2018-05-25T06:44:06.704Z,65.27
2018-05-25T06:45:16.701Z,65.08
2018-05-25T06:46:26.422Z,64.5
2018-05-25T06:47:36.406Z,64.43
2018-05-25T06:48:46.376Z,64.02
2018-05-25T06:49:56.354Z,63.86
2018-05-25T06:51:06.088Z,63.67
2018-05-25T06:52:16.086Z,64.43
2018-05-25T06:53:26.116Z,64.05
2018-05-25T06:54:35.851Z,64.15
2018-05-25T06:55:45.317Z,62.99
2018-05-25T06:56:55.300Z,62.71
2018-05-25T06:58:05.092Z,63.76
2018-05-25T06:59:15.145Z,63.18
2018-05-25T07:00:24.934Z,62.83
2018-05-25T07:01:34.975Z,62.64
2018-05-25T07:02:44.975Z,62.74
2018-05-25T07:03:55.069Z,63.02
2018-05-25T07:05:05.560Z,62.64
2018-05-25T07:06:15.308Z,62.26
2018-05-25T07:07:25.362Z,62.35
2018-05-25T07:08:35.128Z,61.97
2018-05-25T07:09:45.116Z,62.16
2018-05-25T07:10:55.093Z,62.29
2018-05-25T07:12:05.108Z,62.09
2018-05-25T07:13:15.099Z,60.84
2018-05-25T07:14:24.644Z,59.78
2018-05-25T07:15:34.403Z,60.55
2018-05-25T07:16:44.399Z,60.84
2018-05-25T07:17:54.391Z,60.84
2018-05-25T07:19:04.412Z,61.42
2018-05-25T07:20:14.435Z,60.77
2018-05-25T07:21:24.480Z,60.87
2018-05-25T07:22:34.210Z,60.58
2018-05-25T07:23:44.216Z,60.39
2018-05-25T07:24:54.213Z,60.39
2018-05-25T07:26:03.953Z,59.27
2018-05-25T07:27:13.430Z,59.17
2018-05-25T07:28:23.151Z,58.88
2018-05-25T07:29:33.151Z,59.07
2018-05-25T07:30:43.146Z,58.4
2018-05-25T07:31:53.137Z,58.97
2018-05-25T07:33:03.149Z,58.69
2018-05-25T07:34:13.133Z,58.11
2018-05-25T07:35:23.112Z,58.11
2018-05-25T07:36:32.841Z,58.4
2018-05-25T07:37:42.812Z,59.17
2018-05-25T07:38:52.841Z,58.49
2018-05-25T07:40:02.829Z,59.07
2018-05-25T07:41:12.819Z,58.78
2018-05-25T07:42:22.793Z,58.42
2018-05-25T07:43:32.762Z,58.42
2018-05-25T07:44:42.750Z,58.33
2018-05-25T07:45:52.757Z,58.04
2018-05-25T07:47:02.473Z,58.23
2018-05-25T07:48:12.453Z,57.78
2018-05-25T07:49:22.190Z,57.01
2018-05-25T07:50:31.922Z,56.91
2018-05-25T07:51:41.955Z,56.81
2018-05-25T07:52:51.966Z,56.62
2018-05-25T07:54:01.688Z,57.01
2018-05-25T07:55:11.140Z,56.91
2018-05-25T07:56:21.166Z,56.81
2018-05-25T07:57:31.222Z,56.56
2018-05-25T07:58:40.943Z,56.36
2018-05-25T07:59:50.919Z,56.26
2018-05-25T08:01:00.862Z,55.3
2018-05-25T08:02:10.852Z,54.72
2018-05-25T08:03:21.129Z,54.33
2018-05-25T08:04:31.115Z,54.72
2018-05-25T08:05:40.843Z,54.91
2018-05-25T08:06:50.852Z,54.62
2018-05-25T08:08:00.835Z,54.62
2018-05-25T08:09:10.842Z,54.55
2018-05-25T08:10:20.571Z,54.55
2018-05-25T08:11:30.568Z,55.33
2018-05-25T08:12:40.315Z,54.17
2018-05-25T08:13:50.052Z,53.59
2018-05-25T08:15:00.059Z,52.33
2018-05-25T08:16:10.299Z,52.45
2018-05-25T08:17:20.290Z,53.03
2018-05-25T08:18:30.286Z,53.33
2018-05-25T08:19:39.775Z,53.23
2018-05-25T08:20:49.561Z,52.84
2018-05-25T08:21:59.658Z,53.06
2018-05-25T08:23:09.863Z,53.45
2018-05-25T08:24:19.871Z,52.67
2018-05-25T08:25:29.864Z,52.58
2018-05-25T08:26:39.859Z,51.9
2018-05-25T08:27:49.632Z,51.44
2018-05-25T08:28:59.619Z,51.44
2018-05-25T08:30:09.371Z,50.76
2018-05-25T08:31:19.515Z,51.15
2018-05-25T08:32:29.591Z,50.4
2018-05-25T08:33:39.578Z,50.31
2018-05-25T08:34:49.355Z,50.21
2018-05-25T08:35:59.367Z,50.02
2018-05-25T08:37:09.351Z,50.24
2018-05-25T08:38:19.367Z,49.19
2018-05-25T08:39:29.381Z,47.28
2018-05-25T08:40:39.401Z,46.62
2018-05-25T08:41:49.393Z,45.65
2018-05-25T08:42:59.396Z,45.75
2018-05-25T08:44:09.152Z,45.56
2018-05-25T08:45:19.157Z,45.48
2018-05-25T08:46:29.217Z,44.54
2018-05-25T08:47:39.277Z,44.07
2018-05-25T08:48:48.999Z,43.59
2018-05-25T08:49:58.474Z,42.64
2018-05-25T08:51:07.993Z,42.64
2018-05-25T08:52:17.990Z,42.25
2018-05-25T08:53:27.987Z,43.32
2018-05-25T08:54:37.972Z,43.49
2018-05-25T08:55:47.720Z,43.4
2018-05-25T08:56:57.193Z,42.52
2018-05-25T08:58:06.922Z,42.64
2018-05-25T08:59:16.965Z,42.64
2018-05-25T09:00:26.973Z,41.98
2018-05-25T09:01:36.762Z,41.49
2018-05-25T09:02:46.795Z,41.2
2018-05-25T09:03:56.575Z,40.83
2018-05-25T09:05:06.668Z,39.47
2018-05-25T09:06:16.674Z,39.98
2018-05-25T09:07:26.677Z,39.8
2018-05-25T09:08:36.649Z,39.51
2018-05-25T09:09:46.652Z,39.03
2018-05-25T09:10:56.656Z,38.46
2018-05-25T09:12:06.423Z,38.93
2018-05-25T09:13:16.476Z,38.07
2018-05-25T09:14:26.233Z,38.17
2018-05-25T09:15:36.264Z,38.42
2018-05-25T09:16:45.744Z,38.62
2018-05-25T09:17:55.719Z,38.89
2018-05-25T09:19:05.712Z,38.79
2018-05-25T09:20:15.179Z,38.91
2018-05-25T09:21:25.165Z,38.64
2018-05-25T09:22:35.169Z,37.95
2018-05-25T09:23:45.158Z,37.85
2018-05-25T09:24:54.637Z,37.76
2018-05-25T09:26:04.643Z,37.56
2018-05-25T09:27:14.648Z,37.29
2018-05-25T09:28:24.652Z,36.82
2018-05-25T09:29:34.721Z,36.72
2018-05-25T09:30:44.188Z,35.77
2018-05-25T09:31:54.301Z,35.16
2018-05-25T09:33:04.067Z,35.16
2018-05-25T09:34:14.306Z,35.65
2018-05-25T09:35:24.058Z,36.51
2018-05-25T09:36:33.795Z,37.26
2018-05-25T09:37:43.813Z,37.43
2018-05-25T09:38:53.799Z,38.67
2018-05-25T09:40:03.824Z,38.57
2018-05-25T09:41:13.835Z,37.92
2018-05-25T09:42:23.576Z,38.03
2018-05-25T09:43:33.750Z,37.18
2018-05-25T09:44:43.746Z,36.32
2018-05-25T09:45:53.508Z,36.43
2018-05-25T09:47:03.497Z,35.85
2018-05-25T09:48:13.516Z,35.63
2018-05-25T09:49:23.261Z,36.3
2018-05-25T09:50:33.268Z,36.18
2018-05-25T09:51:43.013Z,36.59
2018-05-25T09:52:53.001Z,35.71
2018-05-25T09:54:03.019Z,35.93
2018-05-25T09:55:13.040Z,35.73
2018-05-25T09:56:23.041Z,34.97
2018-05-25T09:57:32.797Z,34.68
2018-05-25T09:58:42.796Z,34.48
2018-05-25T09:59:52.564Z,34.39
2018-05-25T10:01:02.323Z,33.14
2018-05-25T10:02:12.054Z,32.86
2018-05-25T10:03:21.803Z,32.57
2018-05-25T10:04:31.557Z,32.86
2018-05-25T10:05:41.353Z,33.04
2018-05-25T10:06:51.376Z,33.73
2018-05-25T10:08:01.388Z,34.21
2018-05-25T10:09:11.418Z,34.31
2018-05-25T10:10:21.213Z,34.48
2018-05-25T10:11:31.304Z,34.79
2018-05-25T10:12:41.044Z,33.54
2018-05-25T10:13:51.065Z,33.64
2018-05-25T10:15:01.077Z,33.65
2018-05-25T10:16:11.075Z,32.78
2018-05-25T10:17:21.095Z,33.28
2018-05-25T10:18:31.105Z,32.31
2018-05-25T10:19:41.125Z,32.62
2018-05-25T10:20:50.852Z,32.89
2018-05-25T10:22:00.583Z,32.78
2018-05-25T10:23:10.614Z,33.56
2018-05-25T10:24:20.606Z,33.64
2018-05-25T10:25:30.357Z,33.73
2018-05-25T10:26:40.380Z,33.33
2018-05-25T10:27:50.117Z,32.94
2018-05-25T10:29:00.122Z,33.23
2018-05-25T10:30:10.168Z,33.61
2018-05-25T10:31:19.931Z,33.7
2018-05-25T10:32:29.943Z,32.92
2018-05-25T10:33:39.940Z,32.75
2018-05-25T10:34:49.974Z,32.94
2018-05-25T10:35:59.974Z,32.84
2018-05-25T10:37:09.980Z,33.06
2018-05-25T10:38:19.987Z,32.55
2018-05-25T10:39:29.729Z,32.45
2018-05-25T10:40:39.737Z,32.65
2018-05-25T10:41:49.967Z,32.63
2018-05-25T10:43:00.171Z,33.2
2018-05-25T10:44:10.165Z,33.86
2018-05-25T10:45:20.188Z,34.14
2018-05-25T10:46:30.187Z,34.14
2018-05-25T10:47:40.185Z,33.58
2018-05-25T10:48:49.941Z,34.35
2018-05-25T10:49:59.448Z,34.37
2018-05-25T10:51:09.444Z,33.41
2018-05-25T10:52:19.446Z,33.02
2018-05-25T10:53:29.398Z,33.53
2018-05-25T10:54:39.139Z,32.47
2018-05-25T10:55:49.142Z,31.22
2018-05-25T10:56:59.309Z,30.94
2018-05-25T10:58:09.313Z,30.84
2018-05-25T10:59:19.332Z,30.42
2018-05-25T11:00:29.125Z,30.44
2018-05-25T11:01:39.336Z,31.4
2018-05-25T11:02:49.071Z,31.09
2018-05-25T11:03:58.806Z,31.57
2018-05-25T11:05:08.805Z,31.07
2018-05-25T11:06:18.807Z,31.37
2018-05-25T11:07:28.796Z,30.91
2018-05-25T11:08:38.271Z,30.44
2018-05-25T11:09:48.270Z,30.84
2018-05-25T11:10:58.331Z,30.18
2018-05-25T11:12:08.327Z,29.69
2018-05-25T11:13:18.335Z,29.11
2018-05-25T11:14:28.335Z,28.63
2018-05-25T11:15:38.099Z,28.61
2018-05-25T11:16:48.102Z,27.75
2018-05-25T11:17:58.112Z,28.72
2018-05-25T11:19:08.133Z,28.23
2018-05-25T11:20:18.187Z,28.53
2018-05-25T11:21:28.205Z,28.52
2018-05-25T11:22:38.237Z,28.61
2018-05-25T11:23:48.252Z,29.02
2018-05-25T11:24:58.246Z,29.41
2018-05-25T11:26:08.252Z,28.72
2018-05-25T11:27:18.251Z,28.71
2018-05-25T11:28:28.014Z,28.61
2018-05-25T11:29:38.027Z,29.2
2018-05-25T11:30:47.770Z,28.32
2018-05-25T11:31:57.514Z,28.61
2018-05-25T11:33:07.505Z,27.56
2018-05-25T11:34:17.497Z,27.87
2018-05-25T11:35:27.491Z,27.48
2018-05-25T11:36:37.515Z,27.77
2018-05-25T11:37:47.270Z,27.48
2018-05-25T11:38:57.282Z,28.05
2018-05-25T11:40:07.281Z,28.25
2018-05-25T11:41:17.303Z,27.36
2018-05-25T11:42:27.038Z,27.45
2018-05-25T11:43:37.032Z,27.94
2018-05-25T11:44:47.029Z,27.65
2018-05-25T11:45:57.031Z,26.5
2018-05-25T11:47:06.783Z,25.65
2018-05-25T11:48:16.796Z,26.44
2018-05-25T11:49:26.280Z,26.34
2018-05-25T11:50:36.296Z,26.35
2018-05-25T11:51:46.334Z,25.67
2018-05-25T11:52:56.102Z,25.39
2018-05-25T11:54:05.999Z,26.26
2018-05-25T11:55:16.049Z,25.48
2018-05-25T11:56:25.528Z,25.39
2018-05-25T11:57:35.541Z,24.99
2018-05-25T11:58:45.555Z,24.9
2018-05-25T11:59:55.302Z,24.51
2018-05-25T12:01:05.038Z,24.88
2018-05-25T12:02:15.039Z,25.95
2018-05-25T12:03:25.044Z,26.25
2018-05-25T12:04:34.788Z,26.54
2018-05-25T12:05:44.784Z,26.92
2018-05-25T12:06:54.523Z,26.32
2018-05-25T12:08:04.544Z,27.38
2018-05-25T12:09:14.277Z,27.38
2018-05-25T12:10:24.291Z,26.68
2018-05-25T12:11:34.287Z,27.56
2018-05-25T12:12:44.019Z,27.94
2018-05-25T12:13:54.028Z,27.94
2018-05-25T12:15:04.035Z,27.73
2018-05-25T12:16:14.022Z,28.32
2018-05-25T12:17:24.033Z,27.73
2018-05-25T12:18:34.038Z,28.32
2018-05-25T12:19:43.799Z,28.53
2018-05-25T12:20:53.531Z,28.04
2018-05-25T12:22:03.256Z,27.94
2018-05-25T12:23:13.246Z,27.56
2018-05-25T12:24:22.979Z,27.66
2018-05-25T12:25:32.745Z,27.76
2018-05-25T12:26:42.515Z,27.58
2018-05-25T12:27:51.986Z,27.67
2018-05-25T12:29:01.770Z,27.19
2018-05-25T12:30:11.513Z,26.7
2018-05-25T12:31:21.244Z,26.31
2018-05-25T12:32:30.731Z,25.15
2018-05-25T12:33:40.734Z,24.49
2018-05-25T12:34:50.731Z,24.31
2018-05-25T12:36:00.729Z,23.94
2018-05-25T12:37:10.465Z,24.35
2018-05-25T12:38:20.458Z,24.24
2018-05-25T12:39:30.478Z,25.67
2018-05-25T12:40:40.482Z,25.26
2018-05-25T12:41:49.957Z,25.45
2018-05-25T12:42:59.707Z,26.23
2018-05-25T12:44:09.711Z,25.84
2018-05-25T12:45:19.706Z,26.15
2018-05-25T12:46:29.434Z,25.45
2018-05-25T12:47:39.434Z,26.23
2018-05-25T12:48:49.678Z,25.83
2018-05-25T12:49:59.696Z,25.15
2018-05-25T12:51:09.694Z,25.65
2018-05-25T12:52:19.417Z,25.26
2018-05-25T12:53:29.426Z,24.49
2018-05-25T12:54:39.421Z,24.98
2018-05-25T12:55:49.158Z,24.49
2018-05-25T12:56:59.144Z,25.68
2018-05-25T12:58:09.161Z,26.05
2018-05-25T12:59:18.899Z,26.51
2018-05-25T13:00:28.903Z,26.79
2018-05-25T13:01:38.645Z,26.99
2018-05-25T13:02:48.640Z,27.08
2018-05-25T13:03:58.377Z,26.6
2018-05-25T13:05:08.164Z,25.74
2018-05-25T13:06:18.160Z,24.79
2018-05-25T13:07:28.178Z,24.52
2018-05-25T13:08:38.174Z,23.74
2018-05-25T13:09:48.199Z,23.36
2018-05-25T13:10:58.194Z,23.17
2018-05-25T13:12:07.941Z,22.69
2018-05-25T13:13:17.956Z,23.28
2018-05-25T13:14:27.680Z,23.46
2018-05-25T13:15:37.409Z,23.17
2018-05-25T13:16:47.142Z,23.74
2018-05-25T13:17:56.622Z,24.22
2018-05-25T13:19:06.343Z,24.9
2018-05-25T13:20:16.355Z,25.18
2018-05-25T13:21:26.366Z,25.27
2018-05-25T13:22:36.379Z,25.66
2018-05-25T13:23:46.357Z,26.15
2018-05-25T13:24:56.368Z,26.15
2018-05-25T13:26:06.113Z,25.57
2018-05-25T13:27:16.116Z,25.66
2018-05-25T13:28:26.109Z,26.05
2018-05-25T13:29:36.111Z,26.12
2018-05-25T13:30:46.112Z,26.43
2018-05-25T13:31:55.838Z,26.82
2018-05-25T13:33:05.839Z,26.62
2018-05-25T13:34:15.846Z,26.44
2018-05-25T13:35:25.569Z,26.73
2018-05-25T13:36:35.565Z,26.15
2018-05-25T13:37:45.561Z,26.82
2018-05-25T13:38:55.289Z,26.22
2018-05-25T13:40:05.287Z,26.9
2018-05-25T13:41:15.295Z,26.9
2018-05-25T13:42:25.031Z,27.28
2018-05-25T13:43:35.027Z,27.27
2018-05-25T13:44:45.021Z,27.47
2018-05-25T13:45:55.039Z,27.17
2018-05-25T13:47:05.025Z,27.58
2018-05-25T13:48:14.768Z,27.76
2018-05-25T13:49:24.826Z,27.75
2018-05-25T13:50:34.579Z,28.04
2018-05-25T13:51:44.326Z,28.14
2018-05-25T13:52:54.328Z,28.42
2018-05-25T13:54:04.068Z,28.32
2018-05-25T13:55:14.067Z,28.13
2018-05-25T13:56:24.082Z,28.04
2018-05-25T13:57:33.808Z,27.66
2018-05-25T13:58:43.809Z,27.16
2018-05-25T13:59:53.539Z,26.78
2018-05-25T14:01:03.519Z,26.79
2018-05-25T14:02:12.987Z,27
2018-05-25T14:03:22.970Z,27.1
2018-05-25T14:04:32.695Z,26.71
2018-05-25T14:05:42.449Z,27.09
2018-05-25T14:06:52.445Z,26.98
2018-05-25T14:08:02.435Z,27.75
2018-05-25T14:09:12.451Z,28.52
2018-05-25T14:10:22.196Z,28.58
2018-05-25T14:11:32.193Z,29.17
2018-05-25T14:12:41.668Z,29.36
2018-05-25T14:13:51.685Z,29.36
2018-05-25T14:15:01.856Z,29.07
2018-05-25T14:16:11.861Z,28.58
2018-05-25T14:17:21.867Z,28.49
2018-05-25T14:18:31.854Z,27.62
2018-05-25T14:19:41.355Z,27.05
2018-05-25T14:20:51.351Z,27.55
2018-05-25T14:22:01.371Z,27.17
2018-05-25T14:23:11.124Z,26.7
2018-05-25T14:24:21.131Z,25.35
2018-05-25T14:25:30.889Z,25.35
2018-05-25T14:26:40.889Z,25.27
2018-05-25T14:27:50.905Z,24.49
2018-05-25T14:29:00.652Z,24.1
2018-05-25T14:30:10.645Z,24.3
2018-05-25T14:31:20.648Z,23.92
2018-05-25T14:32:30.733Z,23.94
2018-05-25T14:33:40.470Z,23.08
2018-05-25T14:34:50.460Z,23.58
2018-05-25T14:36:00.537Z,23.28
2018-05-25T14:37:10.497Z,23.38
2018-05-25T14:38:20.508Z,22.78
2018-05-25T14:39:30.254Z,22.41
2018-05-25T14:40:39.996Z,22.52
2018-05-25T14:41:50.014Z,21.94
2018-05-25T14:42:59.766Z,21.44
2018-05-25T14:44:09.756Z,21.55
2018-05-25T14:45:19.519Z,20.67
2018-05-25T14:46:29.512Z,20.47
2018-05-25T14:47:39.514Z,20.27
2018-05-25T14:48:49.544Z,20.18
2018-05-25T14:49:59.556Z,20.38
2018-05-25T14:51:09.372Z,20.38
2018-05-25T14:52:19.352Z,20.19
2018-05-25T14:53:29.124Z,20.36
2018-05-25T14:54:39.152Z,20.85
2018-05-25T14:55:48.906Z,20.07
2018-05-25T14:56:58.908Z,19.69
2018-05-25T14:58:08.644Z,18.91
2018-05-25T14:59:18.655Z,19.13
2018-05-25T15:00:28.419Z,19.61
2018-05-25T15:01:38.159Z,19.23